RYR185 LPPT-GMAD
Flight info
| Callsign | RYR185 |
|---|---|
| Flight time | 1h 26m |
| Altitude | 37000 |
| Route | BEVOP DCT TAKAV DCT ESS UR724 ADM G850 BULOK |
| Aircraft | B38M/M-SADE3FGILRWY/SB1 |
Departure
| Time | 2026-05-06 11:29 |
|---|---|
| Airport | Lisbon Humberto Delgado Airport (LPPT) |
Arrival
| Time | 2026-05-06 12:56 |
|---|---|
| Airport | Al Massira Airport (GMAD) |
| Time | Latitude | Longitude | Altitude | Speed | Heading |
|---|---|---|---|---|---|
| 2026-05-06 11:06 | 38.76471 | -9.13680 | 362 ft | 0 kts | 167° |
| 2026-05-06 11:22 | 38.76474 | -9.13681 | 354 ft | 2 kts | 167° |
| 2026-05-06 11:22 | 38.76499 | -9.13688 | 363 ft | 4 kts | 167° |
| 2026-05-06 11:22 | 38.76522 | -9.13694 | 358 ft | 4 kts | 176° |
| 2026-05-06 11:22 | 38.76544 | -9.13686 | 362 ft | 4 kts | 231° |
| 2026-05-06 11:23 | 38.76553 | -9.13656 | 359 ft | 4 kts | 259° |
| 2026-05-06 11:23 | 38.76558 | -9.13624 | 363 ft | 4 kts | 258° |
| 2026-05-06 11:23 | 38.76559 | -9.13617 | 363 ft | 1 kts | 258° |
| 2026-05-06 11:25 | 38.76557 | -9.13635 | 356 ft | 6 kts | 259° |
| 2026-05-06 11:25 | 38.76543 | -9.13720 | 361 ft | 13 kts | 258° |
| 2026-05-06 11:26 | 38.76523 | -9.13840 | 354 ft | 15 kts | 258° |
| 2026-05-06 11:26 | 38.76559 | -9.13941 | 360 ft | 14 kts | 335° |
| 2026-05-06 11:26 | 38.76571 | -9.13985 | 359 ft | 6 kts | 259° |
| 2026-05-06 11:26 | 38.76544 | -9.14037 | 358 ft | 8 kts | 230° |
| 2026-05-06 11:27 | 38.76504 | -9.14102 | 359 ft | 10 kts | 242° |
| 2026-05-06 11:27 | 38.76501 | -9.14191 | 358 ft | 6 kts | 292° |
| 2026-05-06 11:27 | 38.76519 | -9.14246 | 357 ft | 3 kts | 293° |
| 2026-05-06 11:27 | 38.76524 | -9.14260 | 355 ft | 3 kts | 293° |
| 2026-05-06 11:28 | 38.76536 | -9.14295 | 357 ft | 6 kts | 293° |
| 2026-05-06 11:28 | 38.76556 | -9.14356 | 354 ft | 9 kts | 296° |
| 2026-05-06 11:28 | 38.76611 | -9.14402 | 353 ft | 11 kts | 0° |
| 2026-05-06 11:28 | 38.76691 | -9.14364 | 356 ft | 18 kts | 23° |
| 2026-05-06 11:29 | 38.77041 | -9.14176 | 356 ft | 88 kts | 22° |
| 2026-05-06 11:29 | 38.77799 | -9.13771 | 363 ft | 145 kts | 22° |
| 2026-05-06 11:29 | 38.78759 | -9.13244 | 830 ft | 155 kts | 20° |
| 2026-05-06 11:29 | 38.79749 | -9.12641 | 1346 ft | 161 kts | 23° |
| 2026-05-06 11:30 | 38.80774 | -9.11982 | 1887 ft | 165 kts | 23° |
| 2026-05-06 11:30 | 38.81842 | -9.11273 | 2426 ft | 183 kts | 24° |
| 2026-05-06 11:30 | 38.83066 | -9.10499 | 2890 ft | 208 kts | 24° |
| 2026-05-06 11:30 | 38.84395 | -9.09558 | 3533 ft | 228 kts | 29° |
| 2026-05-06 11:31 | 38.85766 | -9.08488 | 4435 ft | 231 kts | 30° |
| 2026-05-06 11:31 | 38.87103 | -9.07359 | 5245 ft | 238 kts | 40° |
| 2026-05-06 11:31 | 38.88008 | -9.05572 | 6085 ft | 247 kts | 69° |
| 2026-05-06 11:31 | 38.88223 | -9.03295 | 6597 ft | 269 kts | 94° |
| 2026-05-06 11:32 | 38.87639 | -9.00958 | 7258 ft | 280 kts | 120° |
| 2026-05-06 11:32 | 38.86332 | -8.99101 | 8134 ft | 285 kts | 144° |
| 2026-05-06 11:32 | 38.84555 | -8.97940 | 9011 ft | 288 kts | 160° |
| 2026-05-06 11:32 | 38.82610 | -8.97494 | 9868 ft | 289 kts | 182° |
| 2026-05-06 11:33 | 38.80628 | -8.97970 | 10496 ft | 297 kts | 200° |
| 2026-05-06 11:33 | 38.78638 | -8.98935 | 10893 ft | 314 kts | 201° |
| 2026-05-06 11:33 | 38.76538 | -8.99893 | 11467 ft | 324 kts | 200° |
| 2026-05-06 11:33 | 38.74401 | -9.00844 | 12324 ft | 326 kts | 200° |
| 2026-05-06 11:34 | 38.72234 | -9.01804 | 13132 ft | 330 kts | 200° |
| 2026-05-06 11:34 | 38.70049 | -9.02770 | 13965 ft | 334 kts | 201° |
| 2026-05-06 11:34 | 38.67836 | -9.03749 | 14728 ft | 337 kts | 200° |
| 2026-05-06 11:34 | 38.65639 | -9.04725 | 15506 ft | 340 kts | 201° |
| 2026-05-06 11:35 | 38.63384 | -9.05723 | 16283 ft | 344 kts | 201° |
| 2026-05-06 11:35 | 38.61109 | -9.06727 | 17028 ft | 348 kts | 201° |
| 2026-05-06 11:35 | 38.58810 | -9.07741 | 17780 ft | 352 kts | 201° |
| 2026-05-06 11:35 | 38.56484 | -9.08766 | 18473 ft | 356 kts | 201° |
| 2026-05-06 11:36 | 38.54130 | -9.09803 | 19108 ft | 359 kts | 201° |
| 2026-05-06 11:36 | 38.51778 | -9.10838 | 19744 ft | 362 kts | 201° |
| 2026-05-06 11:36 | 38.49386 | -9.11890 | 20377 ft | 365 kts | 201° |
| 2026-05-06 11:36 | 38.46976 | -9.12949 | 21001 ft | 367 kts | 201° |
| 2026-05-06 11:37 | 38.44545 | -9.14017 | 21617 ft | 370 kts | 201° |
| 2026-05-06 11:37 | 38.42099 | -9.15091 | 22236 ft | 373 kts | 201° |
| 2026-05-06 11:37 | 38.39633 | -9.16173 | 22831 ft | 376 kts | 201° |
| 2026-05-06 11:37 | 38.37150 | -9.17261 | 23425 ft | 379 kts | 201° |
| 2026-05-06 11:38 | 38.34645 | -9.18358 | 23935 ft | 381 kts | 201° |
| 2026-05-06 11:38 | 38.32126 | -9.19461 | 24421 ft | 384 kts | 201° |
| 2026-05-06 11:38 | 38.29626 | -9.20554 | 24887 ft | 386 kts | 201° |
| 2026-05-06 11:38 | 38.27079 | -9.21668 | 25352 ft | 388 kts | 201° |
| 2026-05-06 11:39 | 38.24507 | -9.22791 | 25807 ft | 391 kts | 201° |
| 2026-05-06 11:39 | 38.21916 | -9.23922 | 26242 ft | 394 kts | 201° |
| 2026-05-06 11:39 | 38.19315 | -9.25057 | 26677 ft | 397 kts | 201° |
| 2026-05-06 11:39 | 38.16691 | -9.26200 | 27123 ft | 399 kts | 201° |
| 2026-05-06 11:40 | 38.14051 | -9.27350 | 27552 ft | 401 kts | 201° |
| 2026-05-06 11:40 | 38.11431 | -9.28491 | 27950 ft | 404 kts | 201° |
| 2026-05-06 11:40 | 38.08761 | -9.29652 | 28368 ft | 407 kts | 201° |
| 2026-05-06 11:40 | 38.06062 | -9.30824 | 28763 ft | 410 kts | 201° |
| 2026-05-06 11:41 | 38.03355 | -9.32000 | 29156 ft | 412 kts | 201° |
| 2026-05-06 11:41 | 38.00631 | -9.33172 | 29547 ft | 415 kts | 200° |
| 2026-05-06 11:41 | 37.97850 | -9.34093 | 29900 ft | 420 kts | 192° |
| 2026-05-06 11:41 | 37.94905 | -9.34310 | 30284 ft | 425 kts | 183° |
| 2026-05-06 11:42 | 37.91936 | -9.34357 | 30561 ft | 428 kts | 186° |
| 2026-05-06 11:42 | 37.88980 | -9.34782 | 30831 ft | 428 kts | 192° |
| 2026-05-06 11:42 | 37.86016 | -9.35352 | 31110 ft | 431 kts | 190° |
| 2026-05-06 11:42 | 37.83047 | -9.35733 | 31411 ft | 434 kts | 188° |
| 2026-05-06 11:43 | 37.80027 | -9.36108 | 31701 ft | 437 kts | 189° |
| 2026-05-06 11:43 | 37.76998 | -9.36499 | 31979 ft | 439 kts | 189° |
| 2026-05-06 11:43 | 37.73943 | -9.36899 | 32260 ft | 442 kts | 189° |
| 2026-05-06 11:44 | 37.67784 | -9.37709 | 32819 ft | 446 kts | 189° |
| 2026-05-06 11:44 | 37.64721 | -9.38112 | 33092 ft | 449 kts | 189° |
| 2026-05-06 11:44 | 37.61607 | -9.38521 | 33386 ft | 451 kts | 189° |
| 2026-05-06 11:44 | 37.58470 | -9.38801 | 33739 ft | 453 kts | 184° |
| 2026-05-06 11:45 | 37.55303 | -9.38696 | 34103 ft | 454 kts | 181° |
| 2026-05-06 11:45 | 37.52137 | -9.38641 | 34400 ft | 453 kts | 183° |
| 2026-05-06 11:45 | 37.48986 | -9.38626 | 34734 ft | 452 kts | 183° |
| 2026-05-06 11:45 | 37.45847 | -9.38602 | 35071 ft | 451 kts | 183° |
| 2026-05-06 11:46 | 37.42738 | -9.38573 | 35394 ft | 450 kts | 183° |
| 2026-05-06 11:46 | 37.39586 | -9.38542 | 35721 ft | 450 kts | 183° |
| 2026-05-06 11:46 | 37.36460 | -9.38512 | 36028 ft | 449 kts | 183° |
| 2026-05-06 11:46 | 37.33366 | -9.38482 | 36341 ft | 448 kts | 183° |
| 2026-05-06 11:47 | 37.30252 | -9.38453 | 36634 ft | 447 kts | 183° |
| 2026-05-06 11:47 | 37.27136 | -9.38423 | 36926 ft | 447 kts | 183° |
| 2026-05-06 11:47 | 37.24009 | -9.38393 | 37068 ft | 447 kts | 183° |
| 2026-05-06 11:47 | 37.20933 | -9.38363 | 37038 ft | 445 kts | 183° |
| 2026-05-06 11:48 | 37.14737 | -9.38304 | 37042 ft | 444 kts | 183° |
| 2026-05-06 11:48 | 37.08585 | -9.38246 | 37037 ft | 443 kts | 183° |
| 2026-05-06 11:49 | 37.02410 | -9.38187 | 37035 ft | 443 kts | 183° |
| 2026-05-06 11:49 | 36.97278 | -9.38138 | 37035 ft | 443 kts | 184° |
| 2026-05-06 11:50 | 36.91120 | -9.38080 | 37036 ft | 442 kts | 184° |
| 2026-05-06 11:50 | 36.84967 | -9.38021 | 37037 ft | 442 kts | 184° |
| 2026-05-06 11:51 | 36.78855 | -9.37963 | 37037 ft | 441 kts | 184° |
| 2026-05-06 11:51 | 36.72697 | -9.37905 | 37032 ft | 441 kts | 184° |
| 2026-05-06 11:52 | 36.66561 | -9.37847 | 37038 ft | 440 kts | 184° |
| 2026-05-06 11:52 | 36.60470 | -9.37790 | 37033 ft | 440 kts | 184° |
| 2026-05-06 11:53 | 36.54340 | -9.37732 | 37033 ft | 440 kts | 184° |
| 2026-05-06 11:53 | 36.48219 | -9.37675 | 37035 ft | 439 kts | 184° |
| 2026-05-06 11:54 | 36.42136 | -9.37618 | 37042 ft | 439 kts | 184° |
| 2026-05-06 11:54 | 36.36025 | -9.37561 | 37038 ft | 438 kts | 184° |
| 2026-05-06 11:55 | 36.29915 | -9.37504 | 37034 ft | 438 kts | 184° |
| 2026-05-06 11:55 | 36.23850 | -9.37447 | 37040 ft | 438 kts | 184° |
| 2026-05-06 11:56 | 36.17748 | -9.37390 | 37038 ft | 437 kts | 184° |
| 2026-05-06 11:56 | 36.11649 | -9.37334 | 37036 ft | 437 kts | 184° |
| 2026-05-06 11:57 | 36.05600 | -9.37278 | 37036 ft | 436 kts | 184° |
| 2026-05-06 11:57 | 35.99541 | -9.37221 | 37028 ft | 436 kts | 184° |
| 2026-05-06 11:58 | 35.93494 | -9.37457 | 37039 ft | 432 kts | 189° |
| 2026-05-06 11:58 | 35.87459 | -9.37985 | 37032 ft | 433 kts | 188° |
| 2026-05-06 11:59 | 35.81479 | -9.38433 | 37033 ft | 433 kts | 188° |
| 2026-05-06 11:59 | 35.75453 | -9.38869 | 37033 ft | 432 kts | 188° |
| 2026-05-06 12:00 | 35.69477 | -9.39297 | 37037 ft | 432 kts | 187° |
| 2026-05-06 12:00 | 35.63464 | -9.39730 | 37033 ft | 431 kts | 187° |
| 2026-05-06 12:01 | 35.57467 | -9.40161 | 37028 ft | 431 kts | 188° |
| 2026-05-06 12:01 | 35.51474 | -9.40591 | 37035 ft | 430 kts | 188° |
| 2026-05-06 12:02 | 35.45532 | -9.41017 | 37040 ft | 430 kts | 188° |
| 2026-05-06 12:02 | 35.39560 | -9.41445 | 37032 ft | 430 kts | 188° |
| 2026-05-06 12:03 | 35.33593 | -9.41871 | 37032 ft | 429 kts | 188° |
| 2026-05-06 12:03 | 35.27617 | -9.42297 | 37031 ft | 429 kts | 188° |
| 2026-05-06 12:04 | 35.21657 | -9.42722 | 37030 ft | 428 kts | 188° |
| 2026-05-06 12:04 | 35.15745 | -9.43142 | 37028 ft | 428 kts | 188° |
| 2026-05-06 12:05 | 35.09785 | -9.43566 | 37029 ft | 428 kts | 188° |
| 2026-05-06 12:05 | 35.03832 | -9.43988 | 37027 ft | 427 kts | 188° |
| 2026-05-06 12:06 | 34.97931 | -9.44406 | 37028 ft | 427 kts | 188° |
| 2026-05-06 12:06 | 34.91984 | -9.44826 | 37029 ft | 427 kts | 188° |
| 2026-05-06 12:07 | 34.86038 | -9.45246 | 37029 ft | 426 kts | 188° |
| 2026-05-06 12:07 | 34.80147 | -9.45661 | 37026 ft | 426 kts | 188° |
| 2026-05-06 12:08 | 34.74232 | -9.46078 | 37031 ft | 425 kts | 188° |
| 2026-05-06 12:08 | 34.68308 | -9.46494 | 37029 ft | 425 kts | 189° |
| 2026-05-06 12:09 | 34.62442 | -9.46906 | 37027 ft | 424 kts | 189° |
| 2026-05-06 12:09 | 34.56538 | -9.47320 | 37022 ft | 424 kts | 189° |
| 2026-05-06 12:10 | 34.50650 | -9.47732 | 37021 ft | 423 kts | 189° |
| 2026-05-06 12:10 | 34.44765 | -9.48143 | 37021 ft | 423 kts | 189° |
| 2026-05-06 12:11 | 34.38924 | -9.48551 | 37023 ft | 422 kts | 189° |
| 2026-05-06 12:11 | 34.33048 | -9.48961 | 37020 ft | 422 kts | 189° |
| 2026-05-06 12:12 | 34.27181 | -9.49369 | 37018 ft | 422 kts | 189° |
| 2026-05-06 12:12 | 34.21358 | -9.49774 | 37021 ft | 421 kts | 189° |
| 2026-05-06 12:13 | 34.15503 | -9.50180 | 37021 ft | 421 kts | 189° |
| 2026-05-06 12:13 | 34.09638 | -9.50587 | 37027 ft | 421 kts | 189° |
| 2026-05-06 12:14 | 34.03824 | -9.50989 | 37021 ft | 420 kts | 189° |
| 2026-05-06 12:14 | 33.97980 | -9.51393 | 37022 ft | 420 kts | 189° |
| 2026-05-06 12:15 | 33.92133 | -9.51797 | 37021 ft | 420 kts | 189° |
| 2026-05-06 12:15 | 33.86335 | -9.52196 | 37019 ft | 419 kts | 189° |
| 2026-05-06 12:16 | 33.80504 | -9.52598 | 37019 ft | 419 kts | 189° |
| 2026-05-06 12:16 | 33.74681 | -9.52998 | 37019 ft | 419 kts | 189° |
| 2026-05-06 12:17 | 33.68857 | -9.53398 | 37016 ft | 419 kts | 189° |
| 2026-05-06 12:17 | 33.63031 | -9.53797 | 37017 ft | 418 kts | 189° |
| 2026-05-06 12:18 | 33.57219 | -9.54195 | 37017 ft | 418 kts | 189° |
| 2026-05-06 12:18 | 33.51446 | -9.54590 | 37017 ft | 418 kts | 189° |
| 2026-05-06 12:19 | 33.45633 | -9.54987 | 37020 ft | 417 kts | 189° |
| 2026-05-06 12:19 | 33.39821 | -9.55383 | 37012 ft | 417 kts | 189° |
| 2026-05-06 12:20 | 33.34021 | -9.55778 | 37012 ft | 417 kts | 189° |
| 2026-05-06 12:20 | 33.28224 | -9.56172 | 37010 ft | 417 kts | 189° |
| 2026-05-06 12:21 | 33.22465 | -9.56564 | 37010 ft | 416 kts | 189° |
| 2026-05-06 12:21 | 33.16678 | -9.56956 | 37007 ft | 416 kts | 189° |
| 2026-05-06 12:22 | 33.10885 | -9.57349 | 37012 ft | 416 kts | 189° |
| 2026-05-06 12:22 | 33.05124 | -9.57738 | 37017 ft | 415 kts | 189° |
| 2026-05-06 12:23 | 32.99382 | -9.58126 | 37012 ft | 415 kts | 189° |
| 2026-05-06 12:23 | 32.93604 | -9.58516 | 37011 ft | 414 kts | 189° |
| 2026-05-06 12:24 | 32.87841 | -9.58905 | 37010 ft | 414 kts | 189° |
| 2026-05-06 12:24 | 32.82079 | -9.59292 | 37010 ft | 414 kts | 189° |
| 2026-05-06 12:25 | 32.76358 | -9.59677 | 37009 ft | 414 kts | 189° |
| 2026-05-06 12:25 | 32.70609 | -9.60063 | 37005 ft | 414 kts | 189° |
| 2026-05-06 12:26 | 32.64855 | -9.60449 | 37003 ft | 413 kts | 189° |
| 2026-05-06 12:26 | 32.59115 | -9.60833 | 37006 ft | 413 kts | 190° |
| 2026-05-06 12:27 | 32.53403 | -9.61215 | 37006 ft | 412 kts | 190° |
| 2026-05-06 12:27 | 32.47673 | -9.61597 | 37004 ft | 412 kts | 190° |
| 2026-05-06 12:28 | 32.41944 | -9.61980 | 37005 ft | 411 kts | 190° |
| 2026-05-06 12:28 | 32.36262 | -9.62358 | 37005 ft | 411 kts | 190° |
| 2026-05-06 12:29 | 32.30592 | -9.62733 | 36813 ft | 399 kts | 190° |
| 2026-05-06 12:29 | 32.27836 | -9.62917 | 36440 ft | 395 kts | 190° |
| 2026-05-06 12:29 | 32.25065 | -9.63102 | 36225 ft | 400 kts | 190° |
| 2026-05-06 12:30 | 32.22292 | -9.63286 | 35783 ft | 398 kts | 190° |
| 2026-05-06 12:30 | 32.19547 | -9.63468 | 35262 ft | 393 kts | 190° |
| 2026-05-06 12:30 | 32.16802 | -9.63650 | 34759 ft | 394 kts | 190° |
| 2026-05-06 12:30 | 32.14078 | -9.63831 | 34260 ft | 397 kts | 190° |
| 2026-05-06 12:31 | 32.11321 | -9.64013 | 33730 ft | 395 kts | 190° |
| 2026-05-06 12:31 | 32.08578 | -9.64195 | 33192 ft | 393 kts | 190° |
| 2026-05-06 12:31 | 32.05835 | -9.64377 | 32693 ft | 397 kts | 190° |
| 2026-05-06 12:31 | 32.03065 | -9.64560 | 32210 ft | 401 kts | 189° |
| 2026-05-06 12:32 | 32.00307 | -9.64742 | 31747 ft | 401 kts | 189° |
| 2026-05-06 12:32 | 31.97516 | -9.64926 | 31275 ft | 401 kts | 189° |
| 2026-05-06 12:32 | 31.94734 | -9.65110 | 30809 ft | 400 kts | 189° |
| 2026-05-06 12:32 | 31.91959 | -9.65293 | 30342 ft | 398 kts | 189° |
| 2026-05-06 12:33 | 31.89184 | -9.65476 | 29848 ft | 400 kts | 189° |
| 2026-05-06 12:33 | 31.86392 | -9.65660 | 29315 ft | 403 kts | 189° |
| 2026-05-06 12:33 | 31.83573 | -9.65846 | 28859 ft | 405 kts | 189° |
| 2026-05-06 12:33 | 31.80793 | -9.66029 | 28434 ft | 404 kts | 189° |
| 2026-05-06 12:34 | 31.77991 | -9.66213 | 27972 ft | 402 kts | 189° |
| 2026-05-06 12:34 | 31.75201 | -9.66396 | 27529 ft | 399 kts | 189° |
| 2026-05-06 12:34 | 31.72422 | -9.66579 | 27099 ft | 397 kts | 189° |
| 2026-05-06 12:34 | 31.69666 | -9.66760 | 26664 ft | 394 kts | 189° |
| 2026-05-06 12:35 | 31.66962 | -9.66937 | 26239 ft | 392 kts | 189° |
| 2026-05-06 12:35 | 31.64247 | -9.67115 | 25808 ft | 390 kts | 189° |
| 2026-05-06 12:35 | 31.61542 | -9.67292 | 25397 ft | 387 kts | 189° |
| 2026-05-06 12:35 | 31.59762 | -9.67409 | 25121 ft | 386 kts | 189° |
| 2026-05-06 12:36 | 31.57079 | -9.67585 | 24705 ft | 385 kts | 188° |
| 2026-05-06 12:36 | 31.54408 | -9.67759 | 24293 ft | 383 kts | 188° |
| 2026-05-06 12:36 | 31.50877 | -9.67990 | 23755 ft | 381 kts | 188° |
| 2026-05-06 12:36 | 31.49088 | -9.68107 | 23463 ft | 381 kts | 188° |
| 2026-05-06 12:37 | 31.46479 | -9.68278 | 23000 ft | 379 kts | 188° |
| 2026-05-06 12:37 | 31.43852 | -9.68450 | 22578 ft | 377 kts | 188° |
| 2026-05-06 12:37 | 31.41232 | -9.68618 | 22183 ft | 375 kts | 187° |
| 2026-05-06 12:37 | 31.38618 | -9.68475 | 21717 ft | 381 kts | 173° |
| 2026-05-06 12:38 | 31.36031 | -9.67743 | 21370 ft | 381 kts | 171° |
| 2026-05-06 12:38 | 31.33459 | -9.66996 | 21018 ft | 380 kts | 172° |
| 2026-05-06 12:38 | 31.30897 | -9.66260 | 20660 ft | 378 kts | 172° |
| 2026-05-06 12:38 | 31.28354 | -9.65530 | 20281 ft | 376 kts | 171° |
| 2026-05-06 12:39 | 31.25851 | -9.64811 | 19903 ft | 374 kts | 171° |
| 2026-05-06 12:39 | 31.23327 | -9.64086 | 19512 ft | 372 kts | 171° |
| 2026-05-06 12:39 | 31.20817 | -9.63366 | 19126 ft | 370 kts | 171° |
| 2026-05-06 12:39 | 31.18317 | -9.62650 | 18742 ft | 368 kts | 171° |
| 2026-05-06 12:40 | 31.15833 | -9.61938 | 18360 ft | 367 kts | 171° |
| 2026-05-06 12:40 | 31.13354 | -9.61228 | 17935 ft | 365 kts | 171° |
| 2026-05-06 12:40 | 31.10895 | -9.60524 | 17529 ft | 363 kts | 171° |
| 2026-05-06 12:40 | 31.08442 | -9.59824 | 17142 ft | 362 kts | 171° |
| 2026-05-06 12:41 | 31.06039 | -9.59096 | 16762 ft | 362 kts | 166° |
| 2026-05-06 12:41 | 31.03796 | -9.57713 | 16381 ft | 368 kts | 147° |
| 2026-05-06 12:41 | 31.01801 | -9.55820 | 16015 ft | 369 kts | 145° |
| 2026-05-06 12:41 | 30.99809 | -9.53948 | 15665 ft | 367 kts | 145° |
| 2026-05-06 12:42 | 30.97814 | -9.52096 | 15329 ft | 365 kts | 145° |
| 2026-05-06 12:42 | 30.95832 | -9.50266 | 14943 ft | 364 kts | 145° |
| 2026-05-06 12:42 | 30.93819 | -9.48426 | 14349 ft | 369 kts | 145° |
| 2026-05-06 12:42 | 30.91849 | -9.46644 | 13932 ft | 368 kts | 145° |
| 2026-05-06 12:43 | 30.89849 | -9.44851 | 13551 ft | 366 kts | 145° |
| 2026-05-06 12:43 | 30.87838 | -9.43056 | 13146 ft | 362 kts | 145° |
| 2026-05-06 12:43 | 30.85840 | -9.41278 | 12771 ft | 359 kts | 145° |
| 2026-05-06 12:43 | 30.83880 | -9.39533 | 12406 ft | 350 kts | 145° |
| 2026-05-06 12:44 | 30.81972 | -9.37835 | 12055 ft | 340 kts | 145° |
| 2026-05-06 12:44 | 30.80109 | -9.36175 | 11716 ft | 331 kts | 145° |
| 2026-05-06 12:44 | 30.78300 | -9.34563 | 11382 ft | 323 kts | 145° |
| 2026-05-06 12:44 | 30.76551 | -9.33005 | 11064 ft | 317 kts | 145° |
| 2026-05-06 12:45 | 30.74817 | -9.31459 | 10749 ft | 311 kts | 145° |
| 2026-05-06 12:45 | 30.73109 | -9.29936 | 10420 ft | 308 kts | 145° |
| 2026-05-06 12:45 | 30.69719 | -9.26906 | 9844 ft | 306 kts | 145° |
| 2026-05-06 12:46 | 30.68044 | -9.25419 | 9493 ft | 305 kts | 145° |
| 2026-05-06 12:46 | 30.66359 | -9.23924 | 9175 ft | 304 kts | 145° |
| 2026-05-06 12:46 | 30.64680 | -9.22437 | 8852 ft | 302 kts | 145° |
| 2026-05-06 12:46 | 30.63016 | -9.20973 | 8559 ft | 299 kts | 145° |
| 2026-05-06 12:47 | 30.61356 | -9.19518 | 8255 ft | 296 kts | 145° |
| 2026-05-06 12:47 | 30.59749 | -9.18110 | 7974 ft | 287 kts | 145° |
| 2026-05-06 12:47 | 30.58148 | -9.16830 | 7738 ft | 273 kts | 156° |
| 2026-05-06 12:47 | 30.56359 | -9.16130 | 7495 ft | 265 kts | 172° |
| 2026-05-06 12:48 | 30.54579 | -9.15793 | 7282 ft | 261 kts | 175° |
| 2026-05-06 12:48 | 30.52794 | -9.15490 | 6965 ft | 255 kts | 175° |
| 2026-05-06 12:48 | 30.51037 | -9.15194 | 6511 ft | 255 kts | 175° |
| 2026-05-06 12:48 | 30.49257 | -9.14896 | 5992 ft | 258 kts | 175° |
| 2026-05-06 12:49 | 30.47486 | -9.14611 | 5486 ft | 262 kts | 175° |
| 2026-05-06 12:49 | 30.45661 | -9.14323 | 4919 ft | 266 kts | 174° |
| 2026-05-06 12:49 | 30.43828 | -9.14164 | 4452 ft | 259 kts | 188° |
| 2026-05-06 12:49 | 30.42156 | -9.14695 | 4272 ft | 241 kts | 206° |
| 2026-05-06 12:50 | 30.40696 | -9.15515 | 4146 ft | 226 kts | 210° |
| 2026-05-06 12:50 | 30.39337 | -9.16368 | 4025 ft | 220 kts | 211° |
| 2026-05-06 12:50 | 30.38033 | -9.17240 | 3910 ft | 219 kts | 215° |
| 2026-05-06 12:50 | 30.36764 | -9.18212 | 3758 ft | 219 kts | 215° |
| 2026-05-06 12:51 | 30.35489 | -9.19184 | 3568 ft | 220 kts | 214° |
| 2026-05-06 12:51 | 30.34207 | -9.20153 | 3301 ft | 217 kts | 215° |
| 2026-05-06 12:51 | 30.32978 | -9.21097 | 3105 ft | 204 kts | 220° |
| 2026-05-06 12:51 | 30.32177 | -9.22328 | 2939 ft | 183 kts | 248° |
| 2026-05-06 12:52 | 30.31890 | -9.23695 | 2782 ft | 165 kts | 262° |
| 2026-05-06 12:52 | 30.31861 | -9.24924 | 2613 ft | 142 kts | 269° |
| 2026-05-06 12:52 | 30.31895 | -9.26020 | 2460 ft | 136 kts | 268° |
| 2026-05-06 12:52 | 30.31922 | -9.27107 | 2312 ft | 134 kts | 269° |
| 2026-05-06 12:53 | 30.31947 | -9.28177 | 2118 ft | 132 kts | 269° |
| 2026-05-06 12:53 | 30.31982 | -9.29241 | 1994 ft | 132 kts | 269° |
| 2026-05-06 12:53 | 30.32002 | -9.30304 | 1818 ft | 131 kts | 268° |
| 2026-05-06 12:53 | 30.32015 | -9.31356 | 1623 ft | 131 kts | 271° |
| 2026-05-06 12:54 | 30.32045 | -9.32413 | 1443 ft | 132 kts | 271° |
| 2026-05-06 12:54 | 30.32068 | -9.33477 | 1288 ft | 132 kts | 271° |
| 2026-05-06 12:54 | 30.32100 | -9.34538 | 1128 ft | 131 kts | 271° |
| 2026-05-06 12:54 | 30.32124 | -9.35585 | 956 ft | 129 kts | 269° |
| 2026-05-06 12:55 | 30.32147 | -9.36620 | 786 ft | 130 kts | 272° |
| 2026-05-06 12:55 | 30.32171 | -9.37672 | 597 ft | 132 kts | 271° |
| 2026-05-06 12:55 | 30.32202 | -9.38739 | 419 ft | 134 kts | 271° |
| 2026-05-06 12:55 | 30.32229 | -9.39777 | 237 ft | 124 kts | 272° |
| 2026-05-06 12:56 | 30.32249 | -9.40544 | 234 ft | 61 kts | 271° |
| 2026-05-06 12:56 | 30.32259 | -9.40947 | 234 ft | 43 kts | 272° |
| 2026-05-06 12:56 | 30.32307 | -9.41236 | 235 ft | 27 kts | 296° |
| 2026-05-06 12:56 | 30.32386 | -9.41383 | 235 ft | 20 kts | 302° |
| 2026-05-06 12:57 | 30.32445 | -9.41497 | 236 ft | 14 kts | 307° |
| 2026-05-06 12:57 | 30.32532 | -9.41522 | 236 ft | 14 kts | 1° |
| 2026-05-06 12:57 | 30.32641 | -9.41518 | 234 ft | 17 kts | 2° |
| 2026-05-06 12:57 | 30.32753 | -9.41514 | 236 ft | 11 kts | 2° |
| 2026-05-06 12:58 | 30.32815 | -9.41466 | 234 ft | 13 kts | 78° |
| 2026-05-06 12:58 | 30.32816 | -9.41353 | 234 ft | 15 kts | 92° |
| 2026-05-06 12:58 | 30.32814 | -9.41220 | 234 ft | 17 kts | 92° |
| 2026-05-06 12:58 | 30.32812 | -9.41194 | 234 ft | 0 kts | 92° |
| 2026-05-06 13:00 | 30.32812 | -9.41183 | 234 ft | 4 kts | 92° |
| 2026-05-06 13:01 | 30.32810 | -9.41120 | 235 ft | 10 kts | 88° |
| 2026-05-06 13:01 | 30.32822 | -9.41101 | 236 ft | 4 kts | 25° |
| 2026-05-06 13:01 | 30.32856 | -9.41096 | 234 ft | 5 kts | 2° |
| 2026-05-06 13:01 | 30.32874 | -9.41095 | 235 ft | 1 kts | 2° |
| 2026-05-06 13:02 | 30.32877 | -9.41095 | 235 ft | 1 kts | 2° |
| 2026-05-06 13:02 | 30.32882 | -9.41095 | 234 ft | 0 kts | 2° |